»·PEaware :: N5002T KSBA-KSNA

N5002T :: KSBA-KSNA

FLIGHT INFORMATION

Flight Status: Arrived
Operator: Privately registered:
United States
More flights under this callsign
Pilot: Hunter M. (19355)
Aircraft: CESSNA 172 SKYHAWK
(C172)
More flights by this aircraft type
Origin: KSBA Santa Barbara Mun
United States
Destination: KSNA John Wayne-Orange Co
United States
More flights between these airports :: More routes between these airports
Route: KWANG CMA VNY V186 BAYJY V363 POXKU V8 SLI
File this flight plan on PilotEdge
Remarks: +CW / tec route SBAP6
Altitude:
(Current/Filed)
5,000ft
Speed:
(Current/Filed)
118kts
Departed: 25-Apr-19 08:10 AM
Arrived: 25-Apr-19 09:23 AM
Distance/Time
Traveled:
108nm/1:13
Distance/Time
To Go:
Arrived

Flight Plot

Page will automatically refresh every two minutes.


Map Options




Map Legend


Flown Route
Filed Route
Departure Airport
Arrival Airport
Navaid (VOR, NDB)
Fix

Horizontal Profiles

Position Reports

Time Latitude Longitude Heading Altitude Ground
Speed
25-Apr-19 07:56 34.431450 -119.832377 357 13ft 0kts
25-Apr-19 07:57 34.431450 -119.832377 357 13ft 0kts
25-Apr-19 07:58 34.431450 -119.832377 357 13ft 0kts
25-Apr-19 07:59 34.431450 -119.832377 357 13ft 0kts
25-Apr-19 08:00 34.431450 -119.832377 357 13ft 0kts
25-Apr-19 08:01 34.431450 -119.832377 357 13ft 0kts
25-Apr-19 08:02 34.431450 -119.832377 357 13ft 0kts
25-Apr-19 08:03 34.432871 -119.833521 245 13ft 0kts
25-Apr-19 08:04 34.431709 -119.836685 250 13ft 14kts
25-Apr-19 08:05 34.430695 -119.839676 244 13ft 0kts
25-Apr-19 08:06 34.430695 -119.839678 244 13ft 0kts
25-Apr-19 08:07 34.430694 -119.839679 244 13ft 0kts
25-Apr-19 08:08 34.430254 -119.840178 181 13ft 3kts
25-Apr-19 08:09 34.423148 -119.837687 169 107ft 79kts
25-Apr-19 08:10 34.400504 -119.829262 170 870ft 90kts
25-Apr-19 08:11 34.376059 -119.820581 170 1566ft 92kts
25-Apr-19 08:12 34.351157 -119.811124 170 2270ft 92kts
25-Apr-19 08:13 34.327001 -119.801052 149 3013ft 97kts
25-Apr-19 08:14 34.320203 -119.770361 98 3800ft 93kts
25-Apr-19 08:15 34.312704 -119.741494 100 4508ft 91kts
25-Apr-19 08:16 34.306403 -119.709091 92 4990ft 104kts
25-Apr-19 08:17 34.302465 -119.670889 92 5003ft 118kts
25-Apr-19 08:18 34.298495 -119.631282 92 4999ft 118kts
25-Apr-19 08:19 34.293748 -119.591871 100 5001ft 119kts
25-Apr-19 08:20 34.285921 -119.552682 96 5000ft 119kts
25-Apr-19 08:21 34.280339 -119.513297 96 5005ft 118kts
25-Apr-19 08:22 34.275342 -119.474119 96 5008ft 117kts
25-Apr-19 08:23 34.270129 -119.435158 96 5008ft 117kts
25-Apr-19 08:24 34.263974 -119.396116 100 5000ft 118kts
25-Apr-19 08:25 34.256585 -119.357994 102 4999ft 116kts
25-Apr-19 08:26 34.249446 -119.319978 97 5000ft 115kts
25-Apr-19 08:27 34.243947 -119.281764 97 5000ft 115kts
25-Apr-19 08:28 34.238209 -119.243658 96 4999ft 115kts
25-Apr-19 08:29 34.232262 -119.205593 97 5000ft 115kts
25-Apr-19 08:30 34.226429 -119.167506 97 5000ft 115kts
25-Apr-19 08:31 34.220647 -119.129350 98 5000ft 115kts
25-Apr-19 08:32 34.214958 -119.091192 91 4999ft 114kts
25-Apr-19 08:33 34.214802 -119.052754 85 5003ft 114kts
25-Apr-19 08:34 34.215456 -119.014412 85 5002ft 114kts
25-Apr-19 08:35 34.216024 -118.975924 85 5002ft 114kts
25-Apr-19 08:36 34.216509 -118.937651 85 5002ft 114kts
25-Apr-19 08:37 34.216962 -118.899164 85 5001ft 114kts
25-Apr-19 08:38 34.217334 -118.860696 86 5002ft 114kts
25-Apr-19 08:39 34.218406 -118.822258 84 5000ft 114kts
25-Apr-19 08:40 34.219713 -118.783823 84 5001ft 114kts
25-Apr-19 08:41 34.221008 -118.745400 84 5001ft 114kts
25-Apr-19 08:42 34.222229 -118.706997 84 5001ft 114kts
25-Apr-19 08:43 34.223382 -118.668437 84 5000ft 114kts
25-Apr-19 08:44 34.224469 -118.629959 84 4997ft 114kts
25-Apr-19 08:45 34.224747 -118.591415 86 4995ft 114kts
25-Apr-19 08:46 34.225426 -118.552749 86 4990ft 115kts
25-Apr-19 08:47 34.225992 -118.514149 86 4990ft 114kts
25-Apr-19 08:48 34.221757 -118.476365 109 4997ft 116kts
25-Apr-19 08:49 34.210296 -118.439787 109 4989ft 116kts
25-Apr-19 08:50 34.198016 -118.403461 111 4985ft 116kts
25-Apr-19 08:51 34.185744 -118.367293 111 4987ft 115kts
25-Apr-19 08:52 34.173733 -118.331091 112 4965ft 116kts
25-Apr-19 08:53 34.162642 -118.294610 111 4955ft 115kts
25-Apr-19 08:54 34.152039 -118.258275 111 4950ft 114kts
25-Apr-19 08:55 34.141466 -118.222026 111 4945ft 114kts
25-Apr-19 08:56 34.130905 -118.185977 111 4946ft 113kts
25-Apr-19 08:57 34.120241 -118.150021 111 4948ft 113kts
25-Apr-19 08:58 34.109568 -118.114227 111 4956ft 111kts
25-Apr-19 08:59 34.098988 -118.079142 111 4979ft 111kts
25-Apr-19 09:00 34.086742 -118.044313 112 5017ft 115kts
25-Apr-19 09:01 34.074016 -118.008363 112 5014ft 116kts
25-Apr-19 09:02 34.062742 -117.972213 109 4998ft 115kts
25-Apr-19 09:03 34.052936 -117.935252 105 4999ft 115kts
25-Apr-19 09:04 34.044307 -117.898077 106 4999ft 115kts
25-Apr-19 09:05 34.033726 -117.861787 110 5013ft 115kts
25-Apr-19 09:06 34.022024 -117.825427 110 5013ft 116kts
25-Apr-19 09:07 34.009636 -117.789663 135 5004ft 116kts
25-Apr-19 09:08 33.979675 -117.784308 178 4588ft 106kts
25-Apr-19 09:09 33.950553 -117.781910 182 4085ft 103kts
25-Apr-19 09:10 33.923608 -117.781247 183 4001ft 91kts
25-Apr-19 09:11 33.897674 -117.780436 183 4018ft 96kts
25-Apr-19 09:12 33.874652 -117.763274 133 3788ft 115kts
25-Apr-19 09:13 33.848934 -117.744813 218 3179ft 109kts
25-Apr-19 09:14 33.832253 -117.771295 205 2931ft 101kts
25-Apr-19 09:15 33.808207 -117.784335 213 2879ft 91kts
25-Apr-19 09:16 33.786376 -117.800638 208 2236ft 89kts
25-Apr-19 09:17 33.763682 -117.812707 205 1790ft 87kts
25-Apr-19 09:18 33.744631 -117.825465 210 1375ft 69kts
25-Apr-19 09:19 33.727037 -117.835617 207 1060ft 68kts
25-Apr-19 09:20 33.709768 -117.846953 208 713ft 72kts
25-Apr-19 09:21 33.692756 -117.858038 206 355ft 63kts
25-Apr-19 09:22 33.678493 -117.867013 214 59ft 26kts
25-Apr-19 09:23 33.678600 -117.868697 298 59ft 16kts

Navigation Log

Ident Type
Flight plan parsing failed, navigation log unavailable